Terminal Aerodrome Forecast
Issued by NWS Binghamton, NY

Home | Current Version | Previous Version | Text Only | Print | Product List | Glossary On
Versions: 1 2 3 4 5 6 7 8 9 10 11 12 13 14
000
FTUS41 KBGM 191731
TAFAVP
TAF
KAVP 191731Z 1918/2018 28010KT P6SM SKC
     FM200400 31008KT P6SM BKN050
     FM201400 34010KT P6SM SCT050=

USA.gov is the U.S. government's official web portal to all federal, state and local government web resources and services.